Overview Statistics Trail Chart Weather Telemetry Raw packets
 

This is the latest recevied weather packets stored in our database for station/object wb2ifs-13. If no packets are shown the sender has not sent any weather packets the latest 10 day(s).

<< 34 35 36 37 38 39 >>
Time Temp. Humidity Pressure Rain* Wind** Luminosity Snow
1787796003 23.33° C 78% 1017.8 hPa 0 mm - - -
1787795102 23.33° C 77% 1017.7 hPa 0 mm - - -
1787794203 23.33° C 77% 1017.5 hPa 0 mm - - -
1787793303 23.33° C 78% 1017.5 hPa 0 mm - - -
1787792402 23.33° C 79% 1017.3 hPa 0 mm - - -
1787791503 23.33° C 80% 1017.2 hPa 0 mm - - -
1787790603 23.33° C 81% 1017.1 hPa 0 mm - - -
1787789703 23.89° C 79% 1016.8 hPa 0 mm - - -
1787788808 24.44° C 78% 1017 hPa 0 mm - - -
1787787905 25° C 76% 1017 hPa 0 mm - - -
1787787004 25° C 75% 1017.1 hPa 0 mm - - -
1787786104 25.56° C 74% 1017.1 hPa 0 mm - - -
1787785205 26.11° C 72% 1017.4 hPa 0 mm - - -
1787784303 27.22° C 70% 1017.6 hPa 0 mm - - -
1787783404 27.22° C 64% 1017.6 hPa 0 mm - - -
1787782504 27.78° C 62% 1017.7 hPa 0 mm - - -
1787781602 28.33° C 61% 1018 hPa 0 mm - - -
1787780702 28.33° C 61% 1017.9 hPa 0 mm - - -
1787779802 28.33° C 60% 1018 hPa 0 mm - - -
1787778902 28.33° C 60% 1018.2 hPa 0 mm - - -
1787778006 28.33° C 59% 1018.2 hPa 0 mm - - -
1787777103 28.89° C 58% 1018.1 hPa 0 mm - - -
1787776202 30.56° C 53% 1018.2 hPa 0 mm - - -
1787775302 30° C 53% 1018.1 hPa 0 mm - - -
1787774407 29.44° C 54% 1018 hPa 0 mm - - -

* Rain latest hour (hover to see other rain measurements)
** Current wind speed in m/s (hover to see current wind gust speed)